sensor_id;sensor_type;location;lat;lon;timestamp;P1;durP1;ratioP1;P2;durP2;ratioP2
74900;SDS011;63461;51.416;6.758;2024-03-08T00:00:00;24.73;;;11.57;;
74900;SDS011;63461;51.416;6.758;2024-03-08T00:02:37;24.00;;;12.57;;
74900;SDS011;63461;51.416;6.758;2024-03-08T00:05:04;23.23;;;11.97;;
74900;SDS011;63461;51.416;6.758;2024-03-08T00:07:31;24.20;;;11.63;;
74900;SDS011;63461;51.416;6.758;2024-03-08T00:09:57;23.97;;;11.17;;
74900;SDS011;63461;51.416;6.758;2024-03-08T00:12:23;25.63;;;12.70;;
74900;SDS011;63461;51.416;6.758;2024-03-08T00:14:50;28.80;;;12.97;;
74900;SDS011;63461;51.416;6.758;2024-03-08T00:17:15;25.93;;;12.70;;
74900;SDS011;63461;51.416;6.758;2024-03-08T00:19:41;27.97;;;12.47;;
74900;SDS011;63461;51.416;6.758;2024-03-08T00:22:07;23.27;;;12.10;;
74900;SDS011;63461;51.416;6.758;2024-03-08T00:24:33;26.13;;;12.40;;
74900;SDS011;63461;51.416;6.758;2024-03-08T00:26:59;25.53;;;12.43;;
74900;SDS011;63461;51.416;6.758;2024-03-08T00:29:24;27.87;;;12.93;;
74900;SDS011;63461;51.416;6.758;2024-03-08T00:31:50;27.03;;;13.00;;
74900;SDS011;63461;51.416;6.758;2024-03-08T00:34:16;28.47;;;12.53;;
74900;SDS011;63461;51.416;6.758;2024-03-08T00:36:42;26.43;;;12.50;;
74900;SDS011;63461;51.416;6.758;2024-03-08T00:39:07;30.07;;;12.87;;
74900;SDS011;63461;51.416;6.758;2024-03-08T00:41:33;26.97;;;13.80;;
74900;SDS011;63461;51.416;6.758;2024-03-08T00:43:59;27.00;;;12.87;;
74900;SDS011;63461;51.416;6.758;2024-03-08T00:46:25;27.07;;;13.20;;
74900;SDS011;63461;51.416;6.758;2024-03-08T00:48:52;24.57;;;12.20;;
74900;SDS011;63461;51.416;6.758;2024-03-08T00:51:18;26.83;;;13.30;;
74900;SDS011;63461;51.416;6.758;2024-03-08T00:53:44;28.73;;;12.13;;
74900;SDS011;63461;51.416;6.758;2024-03-08T00:56:10;26.13;;;13.53;;
74900;SDS011;63461;51.416;6.758;2024-03-08T00:58:38;25.37;;;12.47;;
74900;SDS011;63461;51.416;6.758;2024-03-08T01:01:04;26.43;;;13.13;;
74900;SDS011;63461;51.416;6.758;2024-03-08T01:03:30;27.17;;;13.70;;
74900;SDS011;63461;51.416;6.758;2024-03-08T01:05:59;26.03;;;13.07;;
74900;SDS011;63461;51.416;6.758;2024-03-08T01:08:28;28.13;;;13.83;;
74900;SDS011;63461;51.416;6.758;2024-03-08T01:10:54;29.60;;;13.33;;
74900;SDS011;63461;51.416;6.758;2024-03-08T01:13:19;27.30;;;13.43;;
74900;SDS011;63461;51.416;6.758;2024-03-08T01:15:46;32.87;;;14.27;;
74900;SDS011;63461;51.416;6.758;2024-03-08T01:18:12;25.50;;;12.40;;
74900;SDS011;63461;51.416;6.758;2024-03-08T01:20:38;28.60;;;13.43;;
74900;SDS011;63461;51.416;6.758;2024-03-08T01:23:05;26.70;;;13.00;;
74900;SDS011;63461;51.416;6.758;2024-03-08T01:25:33;28.67;;;13.60;;
74900;SDS011;63461;51.416;6.758;2024-03-08T01:27:59;27.00;;;13.60;;
74900;SDS011;63461;51.416;6.758;2024-03-08T01:30:25;28.17;;;13.63;;
74900;SDS011;63461;51.416;6.758;2024-03-08T01:32:50;27.50;;;14.33;;
74900;SDS011;63461;51.416;6.758;2024-03-08T01:35:16;26.90;;;13.50;;
74900;SDS011;63461;51.416;6.758;2024-03-08T01:37:43;30.30;;;13.63;;
74900;SDS011;63461;51.416;6.758;2024-03-08T01:40:09;26.47;;;12.53;;
74900;SDS011;63461;51.416;6.758;2024-03-08T01:42:35;30.03;;;13.73;;
74900;SDS011;63461;51.416;6.758;2024-03-08T01:45:05;27.77;;;12.40;;
74900;SDS011;63461;51.416;6.758;2024-03-08T01:47:32;27.63;;;12.63;;
74900;SDS011;63461;51.416;6.758;2024-03-08T01:49:59;29.77;;;13.33;;
74900;SDS011;63461;51.416;6.758;2024-03-08T01:52:26;29.50;;;14.20;;
74900;SDS011;63461;51.416;6.758;2024-03-08T01:54:54;26.87;;;13.97;;
74900;SDS011;63461;51.416;6.758;2024-03-08T01:57:20;28.67;;;14.20;;
74900;SDS011;63461;51.416;6.758;2024-03-08T01:59:46;28.33;;;13.07;;
74900;SDS011;63461;51.416;6.758;2024-03-08T02:02:13;27.33;;;13.23;;
74900;SDS011;63461;51.416;6.758;2024-03-08T02:04:42;30.83;;;14.20;;
74900;SDS011;63461;51.416;6.758;2024-03-08T02:07:07;27.33;;;14.10;;
74900;SDS011;63461;51.416;6.758;2024-03-08T02:09:33;26.63;;;12.93;;
74900;SDS011;63461;51.416;6.758;2024-03-08T02:11:59;29.67;;;14.40;;
74900;SDS011;63461;51.416;6.758;2024-03-08T02:14:30;28.63;;;13.57;;
74900;SDS011;63461;51.416;6.758;2024-03-08T02:17:00;28.57;;;13.57;;
74900;SDS011;63461;51.416;6.758;2024-03-08T02:19:26;30.80;;;14.20;;
74900;SDS011;63461;51.416;6.758;2024-03-08T02:21:52;31.07;;;14.07;;
74900;SDS011;63461;51.416;6.758;2024-03-08T02:24:19;27.37;;;14.07;;
74900;SDS011;63461;51.416;6.758;2024-03-08T02:26:45;31.50;;;14.80;;
74900;SDS011;63461;51.416;6.758;2024-03-08T02:29:11;29.87;;;14.20;;
74900;SDS011;63461;51.416;6.758;2024-03-08T02:31:38;30.07;;;14.43;;
74900;SDS011;63461;51.416;6.758;2024-03-08T02:34:04;28.03;;;14.20;;
74900;SDS011;63461;51.416;6.758;2024-03-08T02:36:30;27.27;;;13.90;;
74900;SDS011;63461;51.416;6.758;2024-03-08T02:39:01;30.47;;;14.03;;
74900;SDS011;63461;51.416;6.758;2024-03-08T02:41:28;33.23;;;14.73;;
74900;SDS011;63461;51.416;6.758;2024-03-08T02:43:53;33.07;;;14.43;;
74900;SDS011;63461;51.416;6.758;2024-03-08T02:46:20;28.27;;;15.13;;
74900;SDS011;63461;51.416;6.758;2024-03-08T02:48:46;30.37;;;14.77;;
74900;SDS011;63461;51.416;6.758;2024-03-08T02:51:12;28.60;;;14.27;;
74900;SDS011;63461;51.416;6.758;2024-03-08T02:53:38;31.67;;;14.67;;
74900;SDS011;63461;51.416;6.758;2024-03-08T02:56:04;32.33;;;15.30;;
74900;SDS011;63461;51.416;6.758;2024-03-08T02:58:34;33.37;;;15.20;;
74900;SDS011;63461;51.416;6.758;2024-03-08T03:00:59;31.63;;;13.70;;
74900;SDS011;63461;51.416;6.758;2024-03-08T03:03:25;35.23;;;14.67;;
74900;SDS011;63461;51.416;6.758;2024-03-08T03:05:52;31.60;;;14.97;;
74900;SDS011;63461;51.416;6.758;2024-03-08T03:08:21;32.43;;;15.33;;
74900;SDS011;63461;51.416;6.758;2024-03-08T03:10:47;32.33;;;15.60;;
74900;SDS011;63461;51.416;6.758;2024-03-08T03:13:13;32.90;;;15.00;;
74900;SDS011;63461;51.416;6.758;2024-03-08T03:15:39;32.63;;;15.07;;
74900;SDS011;63461;51.416;6.758;2024-03-08T03:18:08;33.70;;;14.63;;
74900;SDS011;63461;51.416;6.758;2024-03-08T03:20:34;30.27;;;14.77;;
74900;SDS011;63461;51.416;6.758;2024-03-08T03:23:06;32.97;;;14.53;;
74900;SDS011;63461;51.416;6.758;2024-03-08T03:25:33;28.53;;;14.60;;
74900;SDS011;63461;51.416;6.758;2024-03-08T03:28:00;33.17;;;15.60;;
74900;SDS011;63461;51.416;6.758;2024-03-08T03:30:27;28.20;;;14.63;;
74900;SDS011;63461;51.416;6.758;2024-03-08T03:32:56;30.83;;;15.07;;
74900;SDS011;63461;51.416;6.758;2024-03-08T03:35:25;29.50;;;14.70;;
74900;SDS011;63461;51.416;6.758;2024-03-08T03:37:51;36.23;;;15.93;;
74900;SDS011;63461;51.416;6.758;2024-03-08T03:40:33;36.03;;;15.70;;
74900;SDS011;63461;51.416;6.758;2024-03-08T03:42:59;31.60;;;15.53;;
74900;SDS011;63461;51.416;6.758;2024-03-08T03:45:26;33.10;;;15.90;;
74900;SDS011;63461;51.416;6.758;2024-03-08T03:47:52;30.17;;;15.37;;
74900;SDS011;63461;51.416;6.758;2024-03-08T03:50:18;34.53;;;16.10;;
74900;SDS011;63461;51.416;6.758;2024-03-08T03:52:45;34.93;;;16.07;;
74900;SDS011;63461;51.416;6.758;2024-03-08T03:55:11;32.77;;;16.30;;
74900;SDS011;63461;51.416;6.758;2024-03-08T03:57:38;37.80;;;17.17;;
74900;SDS011;63461;51.416;6.758;2024-03-08T04:00:05;33.87;;;16.37;;
74900;SDS011;63461;51.416;6.758;2024-03-08T04:02:38;32.30;;;15.93;;
74900;SDS011;63461;51.416;6.758;2024-03-08T04:05:05;34.93;;;16.27;;
74900;SDS011;63461;51.416;6.758;2024-03-08T04:07:31;34.60;;;15.87;;
74900;SDS011;63461;51.416;6.758;2024-03-08T04:09:57;29.17;;;15.13;;
74900;SDS011;63461;51.416;6.758;2024-03-08T04:12:23;35.97;;;15.80;;
74900;SDS011;63461;51.416;6.758;2024-03-08T04:14:49;33.83;;;15.97;;
74900;SDS011;63461;51.416;6.758;2024-03-08T04:17:15;31.87;;;15.80;;
74900;SDS011;63461;51.416;6.758;2024-03-08T04:19:41;37.27;;;16.50;;
74900;SDS011;63461;51.416;6.758;2024-03-08T04:22:07;34.30;;;16.40;;
74900;SDS011;63461;51.416;6.758;2024-03-08T04:24:33;32.87;;;16.13;;
74900;SDS011;63461;51.416;6.758;2024-03-08T04:26:59;35.13;;;15.93;;
74900;SDS011;63461;51.416;6.758;2024-03-08T04:29:25;34.20;;;16.00;;
74900;SDS011;63461;51.416;6.758;2024-03-08T04:31:52;38.10;;;16.57;;
74900;SDS011;63461;51.416;6.758;2024-03-08T04:34:20;35.63;;;15.97;;
74900;SDS011;63461;51.416;6.758;2024-03-08T04:36:49;36.73;;;16.60;;
74900;SDS011;63461;51.416;6.758;2024-03-08T04:39:15;36.80;;;15.80;;
74900;SDS011;63461;51.416;6.758;2024-03-08T04:41:41;39.27;;;17.07;;
74900;SDS011;63461;51.416;6.758;2024-03-08T04:44:09;42.33;;;17.30;;
74900;SDS011;63461;51.416;6.758;2024-03-08T04:46:36;35.60;;;16.90;;
74900;SDS011;63461;51.416;6.758;2024-03-08T04:49:01;38.03;;;16.83;;
74900;SDS011;63461;51.416;6.758;2024-03-08T04:51:27;34.17;;;15.30;;
74900;SDS011;63461;51.416;6.758;2024-03-08T04:53:53;36.63;;;16.03;;
74900;SDS011;63461;51.416;6.758;2024-03-08T04:56:19;33.10;;;16.70;;
74900;SDS011;63461;51.416;6.758;2024-03-08T04:58:45;38.33;;;16.10;;
74900;SDS011;63461;51.416;6.758;2024-03-08T05:01:14;36.17;;;16.80;;
74900;SDS011;63461;51.416;6.758;2024-03-08T05:03:40;38.33;;;16.37;;
74900;SDS011;63461;51.416;6.758;2024-03-08T05:06:06;37.03;;;16.63;;
74900;SDS011;63461;51.416;6.758;2024-03-08T05:08:32;36.50;;;16.23;;
74900;SDS011;63461;51.416;6.758;2024-03-08T05:10:58;38.50;;;15.87;;
74900;SDS011;63461;51.416;6.758;2024-03-08T05:13:26;35.60;;;15.97;;
74900;SDS011;63461;51.416;6.758;2024-03-08T05:15:52;38.00;;;16.57;;
74900;SDS011;63461;51.416;6.758;2024-03-08T05:18:18;37.43;;;16.80;;
74900;SDS011;63461;51.416;6.758;2024-03-08T05:20:44;38.40;;;17.67;;
74900;SDS011;63461;51.416;6.758;2024-03-08T05:23:10;37.50;;;16.90;;
74900;SDS011;63461;51.416;6.758;2024-03-08T05:25:35;35.17;;;17.00;;
74900;SDS011;63461;51.416;6.758;2024-03-08T05:28:01;36.93;;;16.50;;
74900;SDS011;63461;51.416;6.758;2024-03-08T05:30:29;42.13;;;17.63;;
74900;SDS011;63461;51.416;6.758;2024-03-08T05:32:55;38.93;;;17.10;;
74900;SDS011;63461;51.416;6.758;2024-03-08T05:35:22;39.93;;;16.43;;
74900;SDS011;63461;51.416;6.758;2024-03-08T05:37:47;36.87;;;16.50;;
74900;SDS011;63461;51.416;6.758;2024-03-08T05:40:13;37.87;;;17.27;;
74900;SDS011;63461;51.416;6.758;2024-03-08T05:42:40;36.27;;;16.40;;
74900;SDS011;63461;51.416;6.758;2024-03-08T05:45:06;39.13;;;17.00;;
74900;SDS011;63461;51.416;6.758;2024-03-08T05:47:32;40.73;;;17.67;;
74900;SDS011;63461;51.416;6.758;2024-03-08T05:49:58;38.10;;;17.73;;
74900;SDS011;63461;51.416;6.758;2024-03-08T05:52:24;42.07;;;17.40;;
74900;SDS011;63461;51.416;6.758;2024-03-08T05:54:51;41.57;;;17.37;;
74900;SDS011;63461;51.416;6.758;2024-03-08T05:57:17;35.90;;;16.77;;
74900;SDS011;63461;51.416;6.758;2024-03-08T05:59:43;34.27;;;16.93;;
74900;SDS011;63461;51.416;6.758;2024-03-08T06:02:08;34.53;;;15.90;;
74900;SDS011;63461;51.416;6.758;2024-03-08T06:04:34;39.93;;;17.80;;
74900;SDS011;63461;51.416;6.758;2024-03-08T06:07:00;40.80;;;18.13;;
74900;SDS011;63461;51.416;6.758;2024-03-08T06:09:28;37.97;;;17.37;;
74900;SDS011;63461;51.416;6.758;2024-03-08T06:11:55;39.07;;;17.07;;
74900;SDS011;63461;51.416;6.758;2024-03-08T06:14:22;40.57;;;17.10;;
74900;SDS011;63461;51.416;6.758;2024-03-08T06:16:48;37.93;;;17.17;;
74900;SDS011;63461;51.416;6.758;2024-03-08T06:19:17;41.23;;;18.30;;
74900;SDS011;63461;51.416;6.758;2024-03-08T06:21:42;38.23;;;16.80;;
74900;SDS011;63461;51.416;6.758;2024-03-08T06:24:08;40.03;;;18.00;;
74900;SDS011;63461;51.416;6.758;2024-03-08T06:26:34;39.87;;;17.37;;
74900;SDS011;63461;51.416;6.758;2024-03-08T06:29:00;43.50;;;18.07;;
74900;SDS011;63461;51.416;6.758;2024-03-08T06:31:25;47.10;;;18.73;;
74900;SDS011;63461;51.416;6.758;2024-03-08T06:33:51;46.30;;;17.27;;
74900;SDS011;63461;51.416;6.758;2024-03-08T06:36:19;43.00;;;18.00;;
74900;SDS011;63461;51.416;6.758;2024-03-08T06:38:47;42.20;;;17.50;;
74900;SDS011;63461;51.416;6.758;2024-03-08T06:41:14;43.43;;;18.30;;
74900;SDS011;63461;51.416;6.758;2024-03-08T06:43:43;37.60;;;16.83;;
74900;SDS011;63461;51.416;6.758;2024-03-08T06:46:10;40.53;;;17.70;;
74900;SDS011;63461;51.416;6.758;2024-03-08T06:48:39;44.03;;;17.43;;
74900;SDS011;63461;51.416;6.758;2024-03-08T06:51:05;42.80;;;18.07;;
74900;SDS011;63461;51.416;6.758;2024-03-08T06:53:31;39.40;;;17.13;;
74900;SDS011;63461;51.416;6.758;2024-03-08T06:56:00;42.70;;;17.77;;
74900;SDS011;63461;51.416;6.758;2024-03-08T06:58:26;40.33;;;17.47;;
74900;SDS011;63461;51.416;6.758;2024-03-08T07:00:52;41.17;;;17.23;;
74900;SDS011;63461;51.416;6.758;2024-03-08T07:03:19;38.53;;;18.03;;
74900;SDS011;63461;51.416;6.758;2024-03-08T07:05:45;40.27;;;18.33;;
74900;SDS011;63461;51.416;6.758;2024-03-08T07:08:11;42.67;;;18.67;;
74900;SDS011;63461;51.416;6.758;2024-03-08T07:10:40;42.93;;;17.93;;
74900;SDS011;63461;51.416;6.758;2024-03-08T07:13:10;41.83;;;18.30;;
74900;SDS011;63461;51.416;6.758;2024-03-08T07:15:36;42.60;;;18.07;;
74900;SDS011;63461;51.416;6.758;2024-03-08T07:18:02;40.83;;;18.07;;
74900;SDS011;63461;51.416;6.758;2024-03-08T07:20:28;42.57;;;19.07;;
74900;SDS011;63461;51.416;6.758;2024-03-08T07:22:54;42.10;;;18.50;;
74900;SDS011;63461;51.416;6.758;2024-03-08T07:25:20;41.80;;;18.97;;
74900;SDS011;63461;51.416;6.758;2024-03-08T07:27:48;44.70;;;18.20;;
74900;SDS011;63461;51.416;6.758;2024-03-08T07:30:18;42.87;;;17.60;;
74900;SDS011;63461;51.416;6.758;2024-03-08T07:33:03;43.27;;;17.73;;
74900;SDS011;63461;51.416;6.758;2024-03-08T07:35:30;41.57;;;18.30;;
74900;SDS011;63461;51.416;6.758;2024-03-08T07:37:56;44.43;;;19.27;;
74900;SDS011;63461;51.416;6.758;2024-03-08T07:40:22;39.73;;;18.20;;
74900;SDS011;63461;51.416;6.758;2024-03-08T07:42:49;40.50;;;18.77;;
74900;SDS011;63461;51.416;6.758;2024-03-08T07:45:15;39.80;;;16.97;;
74900;SDS011;63461;51.416;6.758;2024-03-08T07:47:41;43.13;;;18.97;;
74900;SDS011;63461;51.416;6.758;2024-03-08T07:50:08;39.47;;;17.40;;
74900;SDS011;63461;51.416;6.758;2024-03-08T07:52:34;44.17;;;18.47;;
74900;SDS011;63461;51.416;6.758;2024-03-08T07:55:01;45.10;;;18.27;;
74900;SDS011;63461;51.416;6.758;2024-03-08T07:57:29;36.07;;;17.47;;
74900;SDS011;63461;51.416;6.758;2024-03-08T07:59:55;39.37;;;18.67;;
74900;SDS011;63461;51.416;6.758;2024-03-08T08:02:21;42.73;;;17.80;;
74900;SDS011;63461;51.416;6.758;2024-03-08T08:04:47;43.78;;;21.98;;
74900;SDS011;63461;51.416;6.758;2024-03-08T08:07:12;41.70;;;19.40;;
74900;SDS011;63461;51.416;6.758;2024-03-08T08:09:40;50.47;;;20.67;;
74900;SDS011;63461;51.416;6.758;2024-03-08T08:12:10;36.87;;;16.77;;
74900;SDS011;63461;51.416;6.758;2024-03-08T08:14:37;41.40;;;18.33;;
74900;SDS011;63461;51.416;6.758;2024-03-08T08:17:06;41.83;;;17.60;;
74900;SDS011;63461;51.416;6.758;2024-03-08T08:19:34;43.33;;;17.60;;
74900;SDS011;63461;51.416;6.758;2024-03-08T08:22:01;40.60;;;18.20;;
74900;SDS011;63461;51.416;6.758;2024-03-08T08:24:27;39.97;;;17.60;;
74900;SDS011;63461;51.416;6.758;2024-03-08T08:26:53;40.80;;;19.67;;
74900;SDS011;63461;51.416;6.758;2024-03-08T08:29:19;41.87;;;18.80;;
74900;SDS011;63461;51.416;6.758;2024-03-08T08:31:45;38.00;;;17.53;;
74900;SDS011;63461;51.416;6.758;2024-03-08T08:34:12;38.80;;;17.10;;
74900;SDS011;63461;51.416;6.758;2024-03-08T08:36:39;39.00;;;17.70;;
74900;SDS011;63461;51.416;6.758;2024-03-08T08:39:05;35.43;;;16.73;;
74900;SDS011;63461;51.416;6.758;2024-03-08T08:41:37;38.20;;;16.63;;
74900;SDS011;63461;51.416;6.758;2024-03-08T08:44:03;35.37;;;15.53;;
74900;SDS011;63461;51.416;6.758;2024-03-08T08:46:29;33.77;;;14.53;;
74900;SDS011;63461;51.416;6.758;2024-03-08T08:48:54;29.33;;;14.17;;
74900;SDS011;63461;51.416;6.758;2024-03-08T08:51:21;37.40;;;14.80;;
74900;SDS011;63461;51.416;6.758;2024-03-08T08:53:52;33.23;;;14.67;;
74900;SDS011;63461;51.416;6.758;2024-03-08T08:56:18;31.57;;;14.33;;
74900;SDS011;63461;51.416;6.758;2024-03-08T08:58:44;31.07;;;14.27;;
74900;SDS011;63461;51.416;6.758;2024-03-08T09:01:10;33.23;;;14.90;;
74900;SDS011;63461;51.416;6.758;2024-03-08T09:03:36;32.93;;;14.23;;
74900;SDS011;63461;51.416;6.758;2024-03-08T09:06:03;28.50;;;14.10;;
74900;SDS011;63461;51.416;6.758;2024-03-08T09:08:29;32.60;;;14.23;;
74900;SDS011;63461;51.416;6.758;2024-03-08T09:10:55;33.17;;;15.40;;
74900;SDS011;63461;51.416;6.758;2024-03-08T09:13:21;33.23;;;14.80;;
74900;SDS011;63461;51.416;6.758;2024-03-08T09:15:48;31.77;;;14.83;;
74900;SDS011;63461;51.416;6.758;2024-03-08T09:18:13;33.70;;;15.43;;
74900;SDS011;63461;51.416;6.758;2024-03-08T09:20:39;34.00;;;15.40;;
74900;SDS011;63461;51.416;6.758;2024-03-08T09:23:06;31.20;;;14.80;;
74900;SDS011;63461;51.416;6.758;2024-03-08T09:25:33;31.90;;;15.17;;
74900;SDS011;63461;51.416;6.758;2024-03-08T09:27:59;33.37;;;14.90;;
74900;SDS011;63461;51.416;6.758;2024-03-08T09:30:25;30.63;;;14.37;;
74900;SDS011;63461;51.416;6.758;2024-03-08T09:32:51;31.97;;;16.50;;
74900;SDS011;63461;51.416;6.758;2024-03-08T09:35:17;29.80;;;14.53;;
74900;SDS011;63461;51.416;6.758;2024-03-08T09:37:42;34.58;;;17.58;;
74900;SDS011;63461;51.416;6.758;2024-03-08T09:40:08;28.93;;;15.10;;
74900;SDS011;63461;51.416;6.758;2024-03-08T09:42:37;30.50;;;15.00;;
74900;SDS011;63461;51.416;6.758;2024-03-08T09:45:05;36.43;;;15.27;;
74900;SDS011;63461;51.416;6.758;2024-03-08T09:47:36;29.40;;;14.57;;
74900;SDS011;63461;51.416;6.758;2024-03-08T09:50:06;35.93;;;15.77;;
74900;SDS011;63461;51.416;6.758;2024-03-08T09:52:37;35.73;;;15.47;;
74900;SDS011;63461;51.416;6.758;2024-03-08T09:55:06;35.77;;;15.17;;
74900;SDS011;63461;51.416;6.758;2024-03-08T09:57:33;30.80;;;14.93;;
74900;SDS011;63461;51.416;6.758;2024-03-08T10:00:01;31.87;;;15.17;;
74900;SDS011;63461;51.416;6.758;2024-03-08T10:02:29;32.90;;;14.57;;
74900;SDS011;63461;51.416;6.758;2024-03-08T10:04:56;29.90;;;14.23;;
74900;SDS011;63461;51.416;6.758;2024-03-08T10:07:22;26.67;;;13.60;;
74900;SDS011;63461;51.416;6.758;2024-03-08T10:09:51;32.87;;;14.83;;
74900;SDS011;63461;51.416;6.758;2024-03-08T10:12:17;33.50;;;14.30;;
74900;SDS011;63461;51.416;6.758;2024-03-08T10:14:45;29.67;;;13.57;;
74900;SDS011;63461;51.416;6.758;2024-03-08T10:17:11;32.77;;;13.60;;
74900;SDS011;63461;51.416;6.758;2024-03-08T10:19:37;30.17;;;14.00;;
74900;SDS011;63461;51.416;6.758;2024-03-08T10:22:04;26.70;;;13.03;;
74900;SDS011;63461;51.416;6.758;2024-03-08T10:24:30;31.13;;;14.00;;
74900;SDS011;63461;51.416;6.758;2024-03-08T10:27:01;28.83;;;13.80;;
74900;SDS011;63461;51.416;6.758;2024-03-08T10:29:32;27.67;;;13.03;;
74900;SDS011;63461;51.416;6.758;2024-03-08T10:31:58;25.60;;;13.20;;
74900;SDS011;63461;51.416;6.758;2024-03-08T10:34:24;24.63;;;12.47;;
74900;SDS011;63461;51.416;6.758;2024-03-08T10:36:51;27.93;;;13.63;;
74900;SDS011;63461;51.416;6.758;2024-03-08T10:39:23;28.70;;;13.23;;
74900;SDS011;63461;51.416;6.758;2024-03-08T10:41:56;25.87;;;12.53;;
74900;SDS011;63461;51.416;6.758;2024-03-08T10:49:24;27.23;;;12.13;;
74900;SDS011;63461;51.416;6.758;2024-03-08T10:51:55;26.53;;;12.33;;
74900;SDS011;63461;51.416;6.758;2024-03-08T10:54:22;26.07;;;12.23;;
74900;SDS011;63461;51.416;6.758;2024-03-08T10:56:51;27.37;;;12.00;;
74900;SDS011;63461;51.416;6.758;2024-03-08T10:59:18;24.67;;;11.37;;
74900;SDS011;63461;51.416;6.758;2024-03-08T11:01:45;23.13;;;10.43;;
74900;SDS011;63461;51.416;6.758;2024-03-08T11:04:11;20.73;;;10.53;;
74900;SDS011;63461;51.416;6.758;2024-03-08T11:09:03;16.73;;;9.00;;
74900;SDS011;63461;51.416;6.758;2024-03-08T11:11:42;19.03;;;8.37;;
74900;SDS011;63461;51.416;6.758;2024-03-08T11:14:42;17.27;;;8.47;;
74900;SDS011;63461;51.416;6.758;2024-03-08T11:17:08;19.50;;;10.07;;
74900;SDS011;63461;51.416;6.758;2024-03-08T11:19:33;24.43;;;10.77;;
74900;SDS011;63461;51.416;6.758;2024-03-08T11:22:02;25.73;;;12.10;;
74900;SDS011;63461;51.416;6.758;2024-03-08T11:24:36;23.80;;;11.10;;
74900;SDS011;63461;51.416;6.758;2024-03-08T11:27:05;23.27;;;11.53;;
74900;SDS011;63461;51.416;6.758;2024-03-08T11:29:35;27.57;;;11.17;;
74900;SDS011;63461;51.416;6.758;2024-03-08T11:34:41;24.27;;;12.10;;
74900;SDS011;63461;51.416;6.758;2024-03-08T11:37:14;22.80;;;11.53;;
74900;SDS011;63461;51.416;6.758;2024-03-08T11:39:51;21.87;;;10.47;;
74900;SDS011;63461;51.416;6.758;2024-03-08T11:42:24;22.23;;;11.17;;
74900;SDS011;63461;51.416;6.758;2024-03-08T11:44:51;23.07;;;11.37;;
74900;SDS011;63461;51.416;6.758;2024-03-08T11:47:18;23.47;;;11.13;;
74900;SDS011;63461;51.416;6.758;2024-03-08T11:49:45;23.17;;;11.30;;
74900;SDS011;63461;51.416;6.758;2024-03-08T11:52:13;22.83;;;11.40;;
74900;SDS011;63461;51.416;6.758;2024-03-08T11:54:40;22.33;;;11.10;;
74900;SDS011;63461;51.416;6.758;2024-03-08T11:57:08;22.03;;;11.47;;
74900;SDS011;63461;51.416;6.758;2024-03-08T11:59:37;29.83;;;13.83;;
74900;SDS011;63461;51.416;6.758;2024-03-08T12:02:03;28.70;;;14.00;;
74900;SDS011;63461;51.416;6.758;2024-03-08T12:04:31;28.97;;;14.57;;
74900;SDS011;63461;51.416;6.758;2024-03-08T12:07:00;32.77;;;15.17;;
74900;SDS011;63461;51.416;6.758;2024-03-08T12:09:28;34.23;;;16.57;;
74900;SDS011;63461;51.416;6.758;2024-03-08T12:11:54;30.17;;;15.50;;
74900;SDS011;63461;51.416;6.758;2024-03-08T12:14:20;32.43;;;16.07;;
74900;SDS011;63461;51.416;6.758;2024-03-08T12:16:46;34.67;;;16.87;;
74900;SDS011;63461;51.416;6.758;2024-03-08T12:19:13;38.33;;;16.27;;
74900;SDS011;63461;51.416;6.758;2024-03-08T12:21:41;33.23;;;15.87;;
74900;SDS011;63461;51.416;6.758;2024-03-08T12:24:14;31.47;;;16.00;;
74900;SDS011;63461;51.416;6.758;2024-03-08T12:26:45;29.33;;;15.40;;
74900;SDS011;63461;51.416;6.758;2024-03-08T12:29:26;33.33;;;16.33;;
74900;SDS011;63461;51.416;6.758;2024-03-08T12:31:54;28.47;;;14.67;;
74900;SDS011;63461;51.416;6.758;2024-03-08T12:34:23;30.03;;;14.83;;
74900;SDS011;63461;51.416;6.758;2024-03-08T12:36:50;29.23;;;14.50;;
74900;SDS011;63461;51.416;6.758;2024-03-08T12:39:19;28.00;;;14.63;;
74900;SDS011;63461;51.416;6.758;2024-03-08T12:41:55;28.00;;;14.10;;
74900;SDS011;63461;51.416;6.758;2024-03-08T12:44:27;31.40;;;14.40;;
74900;SDS011;63461;51.416;6.758;2024-03-08T12:46:53;29.13;;;13.90;;
74900;SDS011;63461;51.416;6.758;2024-03-08T12:49:20;32.07;;;14.53;;
74900;SDS011;63461;51.416;6.758;2024-03-08T12:51:48;31.10;;;13.70;;
74900;SDS011;63461;51.416;6.758;2024-03-08T12:54:14;29.30;;;13.90;;
74900;SDS011;63461;51.416;6.758;2024-03-08T12:56:40;29.23;;;13.60;;
74900;SDS011;63461;51.416;6.758;2024-03-08T12:59:06;28.17;;;14.53;;
74900;SDS011;63461;51.416;6.758;2024-03-08T13:01:33;26.60;;;13.00;;
74900;SDS011;63461;51.416;6.758;2024-03-08T13:04:02;25.50;;;13.13;;
74900;SDS011;63461;51.416;6.758;2024-03-08T13:06:31;25.57;;;13.27;;
74900;SDS011;63461;51.416;6.758;2024-03-08T13:09:01;17.53;;;9.30;;
74900;SDS011;63461;51.416;6.758;2024-03-08T13:11:31;16.63;;;7.43;;
74900;SDS011;63461;51.416;6.758;2024-03-08T13:14:02;17.77;;;7.73;;
74900;SDS011;63461;51.416;6.758;2024-03-08T13:16:29;14.10;;;6.97;;
74900;SDS011;63461;51.416;6.758;2024-03-08T13:18:55;13.57;;;7.13;;
74900;SDS011;63461;51.416;6.758;2024-03-08T13:21:22;14.93;;;6.90;;
74900;SDS011;63461;51.416;6.758;2024-03-08T13:23:49;13.10;;;7.00;;
74900;SDS011;63461;51.416;6.758;2024-03-08T13:26:15;11.63;;;6.07;;
74900;SDS011;63461;51.416;6.758;2024-03-08T13:28:42;13.20;;;6.60;;
74900;SDS011;63461;51.416;6.758;2024-03-08T13:31:11;13.40;;;6.83;;
74900;SDS011;63461;51.416;6.758;2024-03-08T13:33:37;11.07;;;6.13;;
74900;SDS011;63461;51.416;6.758;2024-03-08T13:36:10;10.33;;;6.03;;
74900;SDS011;63461;51.416;6.758;2024-03-08T13:38:45;12.27;;;6.70;;
74900;SDS011;63461;51.416;6.758;2024-03-08T13:41:14;11.77;;;6.20;;
74900;SDS011;63461;51.416;6.758;2024-03-08T13:43:42;13.80;;;6.90;;
74900;SDS011;63461;51.416;6.758;2024-03-08T13:46:10;11.07;;;5.87;;
74900;SDS011;63461;51.416;6.758;2024-03-08T13:48:36;11.40;;;5.43;;
74900;SDS011;63461;51.416;6.758;2024-03-08T13:51:06;11.97;;;6.50;;
74900;SDS011;63461;51.416;6.758;2024-03-08T13:53:33;12.60;;;6.00;;
74900;SDS011;63461;51.416;6.758;2024-03-08T13:56:02;13.17;;;6.67;;
74900;SDS011;63461;51.416;6.758;2024-03-08T13:58:28;12.90;;;6.57;;
74900;SDS011;63461;51.416;6.758;2024-03-08T14:00:57;12.37;;;6.27;;
74900;SDS011;63461;51.416;6.758;2024-03-08T14:03:22;12.07;;;6.03;;
74900;SDS011;63461;51.416;6.758;2024-03-08T14:05:49;16.00;;;7.33;;
74900;SDS011;63461;51.416;6.758;2024-03-08T14:08:15;11.20;;;6.23;;
74900;SDS011;63461;51.416;6.758;2024-03-08T14:10:42;11.53;;;5.80;;
74900;SDS011;63461;51.416;6.758;2024-03-08T14:13:12;14.67;;;6.23;;
74900;SDS011;63461;51.416;6.758;2024-03-08T14:15:39;12.43;;;6.20;;
74900;SDS011;63461;51.416;6.758;2024-03-08T14:18:07;15.07;;;6.23;;
74900;SDS011;63461;51.416;6.758;2024-03-08T14:20:33;13.47;;;6.07;;
74900;SDS011;63461;51.416;6.758;2024-03-08T14:22:59;14.30;;;6.30;;
74900;SDS011;63461;51.416;6.758;2024-03-08T14:25:25;12.53;;;5.97;;
74900;SDS011;63461;51.416;6.758;2024-03-08T14:27:54;12.37;;;6.40;;
74900;SDS011;63461;51.416;6.758;2024-03-08T14:30:23;12.23;;;6.03;;
74900;SDS011;63461;51.416;6.758;2024-03-08T14:33:04;11.07;;;6.30;;